sensor_id;sensor_type;location;lat;lon;timestamp;temperature;humidity
44894;DHT22;30625;52.206;21.030;2023-02-01T00:00:16;2.80;99.90
44894;DHT22;30625;52.206;21.030;2023-02-01T00:02:42;2.80;99.90
44894;DHT22;30625;52.206;21.030;2023-02-01T00:05:08;2.80;99.90
44894;DHT22;30625;52.206;21.030;2023-02-01T00:07:35;4.20;99.90
44894;DHT22;30625;52.206;21.030;2023-02-01T00:10:00;2.80;99.90
44894;DHT22;30625;52.206;21.030;2023-02-01T00:12:26;2.80;99.90
44894;DHT22;30625;52.206;21.030;2023-02-01T00:14:52;2.80;99.90
44894;DHT22;30625;52.206;21.030;2023-02-01T00:17:18;2.80;99.90
44894;DHT22;30625;52.206;21.030;2023-02-01T00:19:44;2.80;99.90
44894;DHT22;30625;52.206;21.030;2023-02-01T00:22:09;2.90;99.90
44894;DHT22;30625;52.206;21.030;2023-02-01T00:24:35;2.90;99.90
44894;DHT22;30625;52.206;21.030;2023-02-01T00:27:01;2.90;99.90
44894;DHT22;30625;52.206;21.030;2023-02-01T00:29:26;2.90;99.90
44894;DHT22;30625;52.206;21.030;2023-02-01T00:31:52;3.00;99.90
44894;DHT22;30625;52.206;21.030;2023-02-01T00:34:18;3.00;99.90
44894;DHT22;30625;52.206;21.030;2023-02-01T00:36:45;3.10;99.90
44894;DHT22;30625;52.206;21.030;2023-02-01T00:39:11;3.10;99.90
44894;DHT22;30625;52.206;21.030;2023-02-01T00:41:36;3.10;99.90
44894;DHT22;30625;52.206;21.030;2023-02-01T00:44:03;3.10;99.90
44894;DHT22;30625;52.206;21.030;2023-02-01T00:46:29;3.10;99.90
44894;DHT22;30625;52.206;21.030;2023-02-01T00:48:55;3.10;99.90
44894;DHT22;30625;52.206;21.030;2023-02-01T00:51:23;3.10;99.90
44894;DHT22;30625;52.206;21.030;2023-02-01T00:53:49;3.10;99.90
44894;DHT22;30625;52.206;21.030;2023-02-01T00:56:15;3.20;99.90
44894;DHT22;30625;52.206;21.030;2023-02-01T00:58:41;3.10;99.90
44894;DHT22;30625;52.206;21.030;2023-02-01T01:01:24;3.10;99.90
44894;DHT22;30625;52.206;21.030;2023-02-01T01:03:55;3.50;99.90
44894;DHT22;30625;52.206;21.030;2023-02-01T01:06:28;3.10;99.90
44894;DHT22;30625;52.206;21.030;2023-02-01T01:08:57;3.10;99.90
44894;DHT22;30625;52.206;21.030;2023-02-01T01:11:26;3.10;99.90
44894;DHT22;30625;52.206;21.030;2023-02-01T01:13:54;3.00;99.90
44894;DHT22;30625;52.206;21.030;2023-02-01T01:16:21;3.00;99.90
44894;DHT22;30625;52.206;21.030;2023-02-01T01:18:48;2.90;99.90
44894;DHT22;30625;52.206;21.030;2023-02-01T01:21:15;2.90;99.90
44894;DHT22;30625;52.206;21.030;2023-02-01T01:23:41;2.90;99.90
44894;DHT22;30625;52.206;21.030;2023-02-01T01:26:09;2.90;99.90
44894;DHT22;30625;52.206;21.030;2023-02-01T01:28:35;2.80;99.90
44894;DHT22;30625;52.206;21.030;2023-02-01T01:31:02;2.80;99.90
44894;DHT22;30625;52.206;21.030;2023-02-01T01:33:27;3.00;99.90
44894;DHT22;30625;52.206;21.030;2023-02-01T01:35:53;4.40;99.90
44894;DHT22;30625;52.206;21.030;2023-02-01T01:38:19;2.80;99.90
44894;DHT22;30625;52.206;21.030;2023-02-01T01:40:45;2.70;99.90
44894;DHT22;30625;52.206;21.030;2023-02-01T01:43:16;2.80;99.90
44894;DHT22;30625;52.206;21.030;2023-02-01T01:45:42;2.80;99.90
44894;DHT22;30625;52.206;21.030;2023-02-01T01:48:24;2.80;99.90
44894;DHT22;30625;52.206;21.030;2023-02-01T01:51:07;2.70;99.90
44894;DHT22;30625;52.206;21.030;2023-02-01T01:53:43;2.70;99.90
44894;DHT22;30625;52.206;21.030;2023-02-01T01:56:12;2.70;99.90
44894;DHT22;30625;52.206;21.030;2023-02-01T01:58:39;2.70;99.90
44894;DHT22;30625;52.206;21.030;2023-02-01T02:01:05;2.70;99.90
44894;DHT22;30625;52.206;21.030;2023-02-01T02:03:34;2.70;99.90
44894;DHT22;30625;52.206;21.030;2023-02-01T02:06:02;2.80;99.90
44894;DHT22;30625;52.206;21.030;2023-02-01T02:08:29;2.80;99.90
44894;DHT22;30625;52.206;21.030;2023-02-01T02:10:55;3.20;99.90
44894;DHT22;30625;52.206;21.030;2023-02-01T02:13:55;2.80;99.90
44894;DHT22;30625;52.206;21.030;2023-02-01T02:16:39;2.70;99.90
44894;DHT22;30625;52.206;21.030;2023-02-01T02:34:56;2.60;99.90
44894;DHT22;30625;52.206;21.030;2023-02-01T02:37:29;2.60;99.90
44894;DHT22;30625;52.206;21.030;2023-02-01T02:46:12;2.60;99.90
44894;DHT22;30625;52.206;21.030;2023-02-01T02:52:07;2.70;99.90
44894;DHT22;30625;52.206;21.030;2023-02-01T02:54:54;2.70;99.90
44894;DHT22;30625;52.206;21.030;2023-02-01T02:57:40;2.70;99.90
44894;DHT22;30625;52.206;21.030;2023-02-01T03:00:30;2.70;99.90
44894;DHT22;30625;52.206;21.030;2023-02-01T03:03:15;2.70;99.90
44894;DHT22;30625;52.206;21.030;2023-02-01T03:05:59;2.70;99.90
44894;DHT22;30625;52.206;21.030;2023-02-01T03:08:26;2.70;99.90
44894;DHT22;30625;52.206;21.030;2023-02-01T03:11:08;3.30;99.90
44894;DHT22;30625;52.206;21.030;2023-02-01T03:22:03;2.80;99.90
44894;DHT22;30625;52.206;21.030;2023-02-01T03:32:36;2.80;99.90
44894;DHT22;30625;52.206;21.030;2023-02-01T03:35:32;2.80;99.90
44894;DHT22;30625;52.206;21.030;2023-02-01T03:38:12;2.90;99.90
44894;DHT22;30625;52.206;21.030;2023-02-01T03:40:41;2.90;99.90
44894;DHT22;30625;52.206;21.030;2023-02-01T03:43:14;2.90;99.90
44894;DHT22;30625;52.206;21.030;2023-02-01T03:45:44;3.60;99.90
44894;DHT22;30625;52.206;21.030;2023-02-01T03:48:13;2.80;99.90
44894;DHT22;30625;52.206;21.030;2023-02-01T03:50:46;2.80;99.90
44894;DHT22;30625;52.206;21.030;2023-02-01T03:53:19;2.70;99.90
44894;DHT22;30625;52.206;21.030;2023-02-01T03:55:46;2.70;99.90
44894;DHT22;30625;52.206;21.030;2023-02-01T03:58:15;2.70;99.90
44894;DHT22;30625;52.206;21.030;2023-02-01T04:00:44;2.70;99.90
44894;DHT22;30625;52.206;21.030;2023-02-01T04:03:10;2.80;99.90
44894;DHT22;30625;52.206;21.030;2023-02-01T04:05:36;2.80;99.90
44894;DHT22;30625;52.206;21.030;2023-02-01T04:08:02;3.70;99.90
44894;DHT22;30625;52.206;21.030;2023-02-01T04:10:28;2.80;99.90
44894;DHT22;30625;52.206;21.030;2023-02-01T04:12:53;2.80;99.90
44894;DHT22;30625;52.206;21.030;2023-02-01T04:15:19;2.80;99.90
44894;DHT22;30625;52.206;21.030;2023-02-01T04:17:45;2.80;99.90
44894;DHT22;30625;52.206;21.030;2023-02-01T04:20:11;2.80;99.90
44894;DHT22;30625;52.206;21.030;2023-02-01T04:22:36;2.80;99.90
44894;DHT22;30625;52.206;21.030;2023-02-01T04:25:02;3.20;99.90
44894;DHT22;30625;52.206;21.030;2023-02-01T04:27:28;2.70;99.90
44894;DHT22;30625;52.206;21.030;2023-02-01T04:29:53;2.70;99.90
44894;DHT22;30625;52.206;21.030;2023-02-01T04:32:19;2.80;99.90
44894;DHT22;30625;52.206;21.030;2023-02-01T04:34:45;2.80;99.90
44894;DHT22;30625;52.206;21.030;2023-02-01T04:37:11;2.80;99.90
44894;DHT22;30625;52.206;21.030;2023-02-01T04:39:37;2.80;99.90
44894;DHT22;30625;52.206;21.030;2023-02-01T04:42:03;2.80;99.90
44894;DHT22;30625;52.206;21.030;2023-02-01T04:44:28;2.80;99.90
44894;DHT22;30625;52.206;21.030;2023-02-01T04:46:54;3.80;99.90
44894;DHT22;30625;52.206;21.030;2023-02-01T04:49:20;2.80;99.90
44894;DHT22;30625;52.206;21.030;2023-02-01T04:51:47;2.80;99.90
44894;DHT22;30625;52.206;21.030;2023-02-01T04:54:13;2.80;99.90
44894;DHT22;30625;52.206;21.030;2023-02-01T04:56:39;2.80;99.90
44894;DHT22;30625;52.206;21.030;2023-02-01T04:59:05;2.80;99.90
44894;DHT22;30625;52.206;21.030;2023-02-01T05:01:31;2.80;99.90
44894;DHT22;30625;52.206;21.030;2023-02-01T05:03:56;2.80;99.90
44894;DHT22;30625;52.206;21.030;2023-02-01T05:06:23;2.80;99.90
44894;DHT22;30625;52.206;21.030;2023-02-01T05:08:48;2.90;99.90
44894;DHT22;30625;52.206;21.030;2023-02-01T05:11:14;2.80;99.90
44894;DHT22;30625;52.206;21.030;2023-02-01T05:14:02;2.90;99.90
44894;DHT22;30625;52.206;21.030;2023-02-01T05:16:27;2.90;99.90
44894;DHT22;30625;52.206;21.030;2023-02-01T05:18:53;2.80;99.90
44894;DHT22;30625;52.206;21.030;2023-02-01T05:21:19;2.90;99.90
44894;DHT22;30625;52.206;21.030;2023-02-01T05:23:45;2.50;99.90
44894;DHT22;30625;52.206;21.030;2023-02-01T05:26:29;2.90;99.90
44894;DHT22;30625;52.206;21.030;2023-02-01T05:28:55;3.90;99.90
44894;DHT22;30625;52.206;21.030;2023-02-01T05:31:21;2.80;99.90
44894;DHT22;30625;52.206;21.030;2023-02-01T05:33:47;3.80;99.90
44894;DHT22;30625;52.206;21.030;2023-02-01T05:36:22;4.00;99.90
44894;DHT22;30625;52.206;21.030;2023-02-01T05:38:50;3.00;99.90
44894;DHT22;30625;52.206;21.030;2023-02-01T05:41:15;2.90;99.90
44894;DHT22;30625;52.206;21.030;2023-02-01T05:43:41;2.90;99.90
44894;DHT22;30625;52.206;21.030;2023-02-01T05:46:07;4.40;99.90
44894;DHT22;30625;52.206;21.030;2023-02-01T05:48:36;4.10;99.90
44894;DHT22;30625;52.206;21.030;2023-02-01T05:51:01;2.90;99.90
44894;DHT22;30625;52.206;21.030;2023-02-01T05:53:27;2.90;99.90
44894;DHT22;30625;52.206;21.030;2023-02-01T05:55:53;2.90;99.90
44894;DHT22;30625;52.206;21.030;2023-02-01T05:58:18;4.30;99.90
44894;DHT22;30625;52.206;21.030;2023-02-01T06:00:44;3.20;99.90
44894;DHT22;30625;52.206;21.030;2023-02-01T06:03:10;3.90;99.90
44894;DHT22;30625;52.206;21.030;2023-02-01T06:05:36;2.90;99.90
44894;DHT22;30625;52.206;21.030;2023-02-01T06:08:02;2.90;99.90
44894;DHT22;30625;52.206;21.030;2023-02-01T06:10:27;2.90;99.90
44894;DHT22;30625;52.206;21.030;2023-02-01T06:12:53;2.80;99.90
44894;DHT22;30625;52.206;21.030;2023-02-01T06:15:19;2.90;99.90
44894;DHT22;30625;52.206;21.030;2023-02-01T06:17:45;2.90;99.90
44894;DHT22;30625;52.206;21.030;2023-02-01T06:20:13;2.90;99.90
44894;DHT22;30625;52.206;21.030;2023-02-01T06:22:39;2.90;99.90
44894;DHT22;30625;52.206;21.030;2023-02-01T06:25:06;3.00;99.90
44894;DHT22;30625;52.206;21.030;2023-02-01T06:27:35;2.90;99.90
44894;DHT22;30625;52.206;21.030;2023-02-01T06:30:02;3.10;99.90
44894;DHT22;30625;52.206;21.030;2023-02-01T06:32:28;2.90;99.90
44894;DHT22;30625;52.206;21.030;2023-02-01T06:34:54;3.00;99.90
44894;DHT22;30625;52.206;21.030;2023-02-01T06:37:21;3.00;99.90
44894;DHT22;30625;52.206;21.030;2023-02-01T06:39:48;3.40;99.90
44894;DHT22;30625;52.206;21.030;2023-02-01T06:42:14;3.00;99.90
44894;DHT22;30625;52.206;21.030;2023-02-01T06:44:40;3.00;99.90
44894;DHT22;30625;52.206;21.030;2023-02-01T06:47:06;3.00;99.90
44894;DHT22;30625;52.206;21.030;2023-02-01T06:49:32;3.00;99.90
44894;DHT22;30625;52.206;21.030;2023-02-01T06:51:57;3.00;99.90
44894;DHT22;30625;52.206;21.030;2023-02-01T06:54:26;3.10;99.90
44894;DHT22;30625;52.206;21.030;2023-02-01T06:56:51;3.10;99.90
44894;DHT22;30625;52.206;21.030;2023-02-01T06:59:17;3.10;99.90
44894;DHT22;30625;52.206;21.030;2023-02-01T07:01:42;3.10;99.90
44894;DHT22;30625;52.206;21.030;2023-02-01T07:04:10;3.10;99.90
44894;DHT22;30625;52.206;21.030;2023-02-01T07:06:37;3.10;99.90
44894;DHT22;30625;52.206;21.030;2023-02-01T07:09:02;3.20;99.90
44894;DHT22;30625;52.206;21.030;2023-02-01T07:11:28;3.10;99.90
44894;DHT22;30625;52.206;21.030;2023-02-01T07:13:54;3.10;99.90
44894;DHT22;30625;52.206;21.030;2023-02-01T07:16:20;3.10;99.90
44894;DHT22;30625;52.206;21.030;2023-02-01T07:18:46;3.10;99.90
44894;DHT22;30625;52.206;21.030;2023-02-01T07:21:12;4.60;99.90
44894;DHT22;30625;52.206;21.030;2023-02-01T07:23:38;3.20;99.90
44894;DHT22;30625;52.206;21.030;2023-02-01T07:26:06;3.20;99.90
44894;DHT22;30625;52.206;21.030;2023-02-01T07:28:34;3.20;99.90
44894;DHT22;30625;52.206;21.030;2023-02-01T07:31:11;3.20;99.90
44894;DHT22;30625;52.206;21.030;2023-02-01T07:33:39;3.10;99.90
44894;DHT22;30625;52.206;21.030;2023-02-01T07:36:06;3.20;99.90
44894;DHT22;30625;52.206;21.030;2023-02-01T07:38:32;3.10;99.90
44894;DHT22;30625;52.206;21.030;2023-02-01T07:41:00;3.10;99.90
44894;DHT22;30625;52.206;21.030;2023-02-01T07:43:27;3.20;99.90
44894;DHT22;30625;52.206;21.030;2023-02-01T07:45:55;3.20;99.90
44894;DHT22;30625;52.206;21.030;2023-02-01T07:48:22;3.20;99.90
44894;DHT22;30625;52.206;21.030;2023-02-01T07:50:56;3.20;99.90
44894;DHT22;30625;52.206;21.030;2023-02-01T07:53:22;3.20;99.90
44894;DHT22;30625;52.206;21.030;2023-02-01T07:55:48;3.20;99.90
44894;DHT22;30625;52.206;21.030;2023-02-01T07:58:13;4.60;99.90
44894;DHT22;30625;52.206;21.030;2023-02-01T08:00:39;3.80;99.90
44894;DHT22;30625;52.206;21.030;2023-02-01T08:03:23;3.20;99.90
44894;DHT22;30625;52.206;21.030;2023-02-01T08:05:56;3.20;99.90
44894;DHT22;30625;52.206;21.030;2023-02-01T08:08:23;2.30;99.90
44894;DHT22;30625;52.206;21.030;2023-02-01T08:10:49;3.20;99.90
44894;DHT22;30625;52.206;21.030;2023-02-01T08:13:15;3.30;99.90
44894;DHT22;30625;52.206;21.030;2023-02-01T08:15:41;3.20;99.90
44894;DHT22;30625;52.206;21.030;2023-02-01T08:18:06;4.60;99.90
44894;DHT22;30625;52.206;21.030;2023-02-01T08:20:33;3.20;99.90
44894;DHT22;30625;52.206;21.030;2023-02-01T08:23:01;3.20;99.90
44894;DHT22;30625;52.206;21.030;2023-02-01T08:25:28;4.10;99.90
44894;DHT22;30625;52.206;21.030;2023-02-01T08:27:53;4.00;99.90
44894;DHT22;30625;52.206;21.030;2023-02-01T08:30:20;4.10;99.90
44894;DHT22;30625;52.206;21.030;2023-02-01T08:32:47;3.20;99.90
44894;DHT22;30625;52.206;21.030;2023-02-01T08:35:14;4.90;99.90
44894;DHT22;30625;52.206;21.030;2023-02-01T08:37:39;3.00;99.90
44894;DHT22;30625;52.206;21.030;2023-02-01T08:40:06;4.80;99.90
44894;DHT22;30625;52.206;21.030;2023-02-01T08:42:32;3.10;99.90
44894;DHT22;30625;52.206;21.030;2023-02-01T08:45:26;3.20;99.90
44894;DHT22;30625;52.206;21.030;2023-02-01T08:47:58;4.30;99.90
44894;DHT22;30625;52.206;21.030;2023-02-01T08:50:25;3.30;99.90
44894;DHT22;30625;52.206;21.030;2023-02-01T08:52:51;4.00;99.90
44894;DHT22;30625;52.206;21.030;2023-02-01T08:55:17;3.10;99.90
44894;DHT22;30625;52.206;21.030;2023-02-01T08:57:43;4.30;99.90
44894;DHT22;30625;52.206;21.030;2023-02-01T09:00:13;3.10;99.90
44894;DHT22;30625;52.206;21.030;2023-02-01T09:02:39;2.20;99.90
44894;DHT22;30625;52.206;21.030;2023-02-01T09:05:05;3.90;99.90
44894;DHT22;30625;52.206;21.030;2023-02-01T09:07:31;3.20;99.90
44894;DHT22;30625;52.206;21.030;2023-02-01T09:09:57;4.00;99.90
44894;DHT22;30625;52.206;21.030;2023-02-01T09:12:30;3.10;99.90
44894;DHT22;30625;52.206;21.030;2023-02-01T09:14:57;2.20;99.90
44894;DHT22;30625;52.206;21.030;2023-02-01T09:17:25;3.20;99.90
44894;DHT22;30625;52.206;21.030;2023-02-01T09:19:54;3.30;99.90
44894;DHT22;30625;52.206;21.030;2023-02-01T09:22:21;3.80;99.90
44894;DHT22;30625;52.206;21.030;2023-02-01T09:24:46;1.70;99.90
44894;DHT22;30625;52.206;21.030;2023-02-01T09:27:12;1.90;99.90
44894;DHT22;30625;52.206;21.030;2023-02-01T09:29:38;4.50;99.90
44894;DHT22;30625;52.206;21.030;2023-02-01T09:32:04;4.60;99.90
44894;DHT22;30625;52.206;21.030;2023-02-01T09:34:32;3.50;99.90
44894;DHT22;30625;52.206;21.030;2023-02-01T09:36:58;4.90;99.90
44894;DHT22;30625;52.206;21.030;2023-02-01T09:39:24;4.60;99.90
44894;DHT22;30625;52.206;21.030;2023-02-01T09:47:16;3.60;99.90
44894;DHT22;30625;52.206;21.030;2023-02-01T09:50:09;3.30;99.90
44894;DHT22;30625;52.206;21.030;2023-02-01T09:53:02;3.80;99.90
44894;DHT22;30625;52.206;21.030;2023-02-01T09:55:43;3.90;99.90
44894;DHT22;30625;52.206;21.030;2023-02-01T09:58:13;4.10;99.90
44894;DHT22;30625;52.206;21.030;2023-02-01T10:00:40;4.30;99.90
44894;DHT22;30625;52.206;21.030;2023-02-01T10:03:11;4.50;99.90
44894;DHT22;30625;52.206;21.030;2023-02-01T10:14:42;4.80;99.90
44894;DHT22;30625;52.206;21.030;2023-02-01T10:22:47;4.80;99.90
44894;DHT22;30625;52.206;21.030;2023-02-01T10:25:36;4.80;99.90
44894;DHT22;30625;52.206;21.030;2023-02-01T10:28:13;6.00;99.90
44894;DHT22;30625;52.206;21.030;2023-02-01T10:30:44;4.60;99.90
44894;DHT22;30625;52.206;21.030;2023-02-01T10:33:34;4.60;99.90
44894;DHT22;30625;52.206;21.030;2023-02-01T10:36:15;4.60;99.90
44894;DHT22;30625;52.206;21.030;2023-02-01T10:38:43;4.60;99.90
44894;DHT22;30625;52.206;21.030;2023-02-01T10:41:15;4.70;99.90
44894;DHT22;30625;52.206;21.030;2023-02-01T10:43:43;4.60;99.90
44894;DHT22;30625;52.206;21.030;2023-02-01T10:46:10;5.80;99.90
44894;DHT22;30625;52.206;21.030;2023-02-01T10:48:36;4.70;99.90
44894;DHT22;30625;52.206;21.030;2023-02-01T10:51:20;4.70;99.90
44894;DHT22;30625;52.206;21.030;2023-02-01T10:54:01;4.70;99.90
44894;DHT22;30625;52.206;21.030;2023-02-01T10:56:28;4.70;99.90
44894;DHT22;30625;52.206;21.030;2023-02-01T10:59:05;6.00;99.90
44894;DHT22;30625;52.206;21.030;2023-02-01T11:01:39;4.50;99.90
44894;DHT22;30625;52.206;21.030;2023-02-01T11:04:09;4.70;99.90
44894;DHT22;30625;52.206;21.030;2023-02-01T11:06:37;4.80;99.90
44894;DHT22;30625;52.206;21.030;2023-02-01T11:11:56;5.40;99.90
44894;DHT22;30625;52.206;21.030;2023-02-01T11:14:27;5.10;99.90
44894;DHT22;30625;52.206;21.030;2023-02-01T11:17:02;5.30;99.90
44894;DHT22;30625;52.206;21.030;2023-02-01T11:19:38;5.30;99.90
44894;DHT22;30625;52.206;21.030;2023-02-01T13:28:11;4.90;99.90
44894;DHT22;30625;52.206;21.030;2023-02-01T13:42:16;5.10;99.90
44894;DHT22;30625;52.206;21.030;2023-02-01T13:44:49;5.10;99.90
44894;DHT22;30625;52.206;21.030;2023-02-01T13:47:25;5.10;99.90
44894;DHT22;30625;52.206;21.030;2023-02-01T13:49:53;5.20;99.90
44894;DHT22;30625;52.206;21.030;2023-02-01T13:57:40;5.10;99.90
44894;DHT22;30625;52.206;21.030;2023-02-01T14:00:31;5.10;99.90
44894;DHT22;30625;52.206;21.030;2023-02-01T14:10:49;5.30;99.90
44894;DHT22;30625;52.206;21.030;2023-02-01T14:13:37;5.00;99.90
44894;DHT22;30625;52.206;21.030;2023-02-01T14:23:43;4.80;99.90
44894;DHT22;30625;52.206;21.030;2023-02-01T14:26:45;5.30;99.90
44894;DHT22;30625;52.206;21.030;2023-02-01T14:34:18;4.90;99.90
44894;DHT22;30625;52.206;21.030;2023-02-01T14:39:34;4.90;99.90
44894;DHT22;30625;52.206;21.030;2023-02-01T14:42:04;4.90;99.90
44894;DHT22;30625;52.206;21.030;2023-02-01T14:44:33;5.00;99.90
44894;DHT22;30625;52.206;21.030;2023-02-01T14:47:10;4.90;99.90
44894;DHT22;30625;52.206;21.030;2023-02-01T14:50:10;4.90;99.90
44894;DHT22;30625;52.206;21.030;2023-02-01T14:52:44;5.00;99.90
44894;DHT22;30625;52.206;21.030;2023-02-01T14:55:33;5.90;99.90
44894;DHT22;30625;52.206;21.030;2023-02-01T14:58:26;5.00;99.90
44894;DHT22;30625;52.206;21.030;2023-02-01T15:04:44;4.90;99.90
44894;DHT22;30625;52.206;21.030;2023-02-01T15:12:29;5.10;99.90
44894;DHT22;30625;52.206;21.030;2023-02-01T15:15:11;3.90;99.90
44894;DHT22;30625;52.206;21.030;2023-02-01T15:17:41;4.20;99.90
44894;DHT22;30625;52.206;21.030;2023-02-01T15:22:51;5.00;99.90
44894;DHT22;30625;52.206;21.030;2023-02-01T15:27:57;5.10;99.90
44894;DHT22;30625;52.206;21.030;2023-02-01T15:30:29;5.00;99.90
44894;DHT22;30625;52.206;21.030;2023-02-01T15:33:24;5.10;99.90
44894;DHT22;30625;52.206;21.030;2023-02-01T15:35:54;5.00;99.90
44894;DHT22;30625;52.206;21.030;2023-02-01T15:38:25;5.00;99.90
44894;DHT22;30625;52.206;21.030;2023-02-01T15:41:20;5.80;99.90
44894;DHT22;30625;52.206;21.030;2023-02-01T15:46:36;4.90;99.90
44894;DHT22;30625;52.206;21.030;2023-02-01T15:49:04;5.70;99.90
44894;DHT22;30625;52.206;21.030;2023-02-01T15:51:31;6.20;99.90
44894;DHT22;30625;52.206;21.030;2023-02-01T15:54:02;4.90;99.90
44894;DHT22;30625;52.206;21.030;2023-02-01T15:56:34;5.00;99.90
44894;DHT22;30625;52.206;21.030;2023-02-01T15:59:02;5.00;99.90
44894;DHT22;30625;52.206;21.030;2023-02-01T16:01:29;5.80;99.90
44894;DHT22;30625;52.206;21.030;2023-02-01T16:06:52;5.80;99.90
44894;DHT22;30625;52.206;21.030;2023-02-01T16:09:35;4.80;99.90
44894;DHT22;30625;52.206;21.030;2023-02-01T16:12:03;4.80;99.90
44894;DHT22;30625;52.206;21.030;2023-02-01T16:14:29;4.70;99.90
44894;DHT22;30625;52.206;21.030;2023-02-01T16:16:57;4.80;99.90
44894;DHT22;30625;52.206;21.030;2023-02-01T16:19:23;4.70;99.90
44894;DHT22;30625;52.206;21.030;2023-02-01T16:21:53;4.60;99.90
44894;DHT22;30625;52.206;21.030;2023-02-01T16:24:19;4.60;99.90
44894;DHT22;30625;52.206;21.030;2023-02-01T16:26:47;4.60;99.90
44894;DHT22;30625;52.206;21.030;2023-02-01T16:29:13;4.60;99.90
44894;DHT22;30625;52.206;21.030;2023-02-01T16:31:40;4.60;99.90
44894;DHT22;30625;52.206;21.030;2023-02-01T16:34:13;5.10;99.90
44894;DHT22;30625;52.206;21.030;2023-02-01T16:36:39;4.60;99.90
44894;DHT22;30625;52.206;21.030;2023-02-01T16:39:05;4.60;99.90
44894;DHT22;30625;52.206;21.030;2023-02-01T16:41:32;4.60;99.90
44894;DHT22;30625;52.206;21.030;2023-02-01T16:44:01;4.60;99.90
44894;DHT22;30625;52.206;21.030;2023-02-01T16:46:28;4.60;99.90
44894;DHT22;30625;52.206;21.030;2023-02-01T16:48:58;4.40;99.90
44894;DHT22;30625;52.206;21.030;2023-02-01T16:51:30;6.00;99.90
44894;DHT22;30625;52.206;21.030;2023-02-01T16:53:58;4.60;99.90
44894;DHT22;30625;52.206;21.030;2023-02-01T16:56:29;4.60;99.90
44894;DHT22;30625;52.206;21.030;2023-02-01T16:58:56;4.60;99.90
44894;DHT22;30625;52.206;21.030;2023-02-01T17:01:22;5.20;99.90
44894;DHT22;30625;52.206;21.030;2023-02-01T17:03:48;4.50;99.90
44894;DHT22;30625;52.206;21.030;2023-02-01T17:06:17;4.30;99.90
44894;DHT22;30625;52.206;21.030;2023-02-01T17:08:47;4.50;99.90
44894;DHT22;30625;52.206;21.030;2023-02-01T17:11:15;4.20;99.90
44894;DHT22;30625;52.206;21.030;2023-02-01T17:13:41;5.70;99.90
44894;DHT22;30625;52.206;21.030;2023-02-01T17:19:00;4.50;99.90
44894;DHT22;30625;52.206;21.030;2023-02-01T17:21:29;4.60;99.90
44894;DHT22;30625;52.206;21.030;2023-02-01T17:23:55;4.60;99.90
44894;DHT22;30625;52.206;21.030;2023-02-01T17:26:24;4.60;99.90
44894;DHT22;30625;52.206;21.030;2023-02-01T17:28:50;4.60;99.90
44894;DHT22;30625;52.206;21.030;2023-02-01T17:31:16;4.60;99.90
44894;DHT22;30625;52.206;21.030;2023-02-01T17:33:42;4.60;99.90
44894;DHT22;30625;52.206;21.030;2023-02-01T17:36:14;4.50;99.90
44894;DHT22;30625;52.206;21.030;2023-02-01T17:38:40;4.50;99.90
44894;DHT22;30625;52.206;21.030;2023-02-01T17:41:10;4.50;99.90
44894;DHT22;30625;52.206;21.030;2023-02-01T17:43:36;5.60;99.90
44894;DHT22;30625;52.206;21.030;2023-02-01T17:46:13;4.50;99.90
44894;DHT22;30625;52.206;21.030;2023-02-01T17:48:40;4.50;99.90
44894;DHT22;30625;52.206;21.030;2023-02-01T17:51:16;4.50;99.90
44894;DHT22;30625;52.206;21.030;2023-02-01T17:53:42;4.50;99.90
44894;DHT22;30625;52.206;21.030;2023-02-01T17:56:13;4.50;99.90
44894;DHT22;30625;52.206;21.030;2023-02-01T17:58:40;5.00;99.90
44894;DHT22;30625;52.206;21.030;2023-02-01T18:01:05;5.90;99.90
44894;DHT22;30625;52.206;21.030;2023-02-01T18:03:31;4.40;99.90
44894;DHT22;30625;52.206;21.030;2023-02-01T18:05:58;4.30;99.90
44894;DHT22;30625;52.206;21.030;2023-02-01T18:08:26;4.30;99.90
44894;DHT22;30625;52.206;21.030;2023-02-01T18:10:58;4.30;99.90
44894;DHT22;30625;52.206;21.030;2023-02-01T18:13:28;4.30;99.90
44894;DHT22;30625;52.206;21.030;2023-02-01T18:15:54;4.30;99.90
44894;DHT22;30625;52.206;21.030;2023-02-01T18:18:20;4.20;99.90
44894;DHT22;30625;52.206;21.030;2023-02-01T18:20:46;4.20;99.90
44894;DHT22;30625;52.206;21.030;2023-02-01T18:23:21;4.20;99.90
44894;DHT22;30625;52.206;21.030;2023-02-01T18:25:48;4.20;99.90
44894;DHT22;30625;52.206;21.030;2023-02-01T18:28:14;4.20;99.90
44894;DHT22;30625;52.206;21.030;2023-02-01T18:30:43;4.30;99.90
44894;DHT22;30625;52.206;21.030;2023-02-01T18:33:14;4.20;99.90
44894;DHT22;30625;52.206;21.030;2023-02-01T18:35:41;4.00;99.90
44894;DHT22;30625;52.206;21.030;2023-02-01T18:38:07;4.60;99.90
44894;DHT22;30625;52.206;21.030;2023-02-01T18:40:42;4.00;99.90
44894;DHT22;30625;52.206;21.030;2023-02-01T18:43:10;4.00;99.90
44894;DHT22;30625;52.206;21.030;2023-02-01T18:45:38;4.70;99.90
44894;DHT22;30625;52.206;21.030;2023-02-01T18:48:06;3.90;99.90
44894;DHT22;30625;52.206;21.030;2023-02-01T18:50:40;3.90;99.90
44894;DHT22;30625;52.206;21.030;2023-02-01T18:53:11;3.90;99.90
44894;DHT22;30625;52.206;21.030;2023-02-01T18:55:37;3.90;99.90
44894;DHT22;30625;52.206;21.030;2023-02-01T18:58:04;3.90;99.90
44894;DHT22;30625;52.206;21.030;2023-02-01T19:00:32;3.90;99.90
44894;DHT22;30625;52.206;21.030;2023-02-01T19:02:58;3.90;99.90
44894;DHT22;30625;52.206;21.030;2023-02-01T19:05:25;4.30;99.90
44894;DHT22;30625;52.206;21.030;2023-02-01T19:07:51;3.90;99.90
44894;DHT22;30625;52.206;21.030;2023-02-01T19:10:20;4.40;99.90
44894;DHT22;30625;52.206;21.030;2023-02-01T19:12:50;4.00;99.90
44894;DHT22;30625;52.206;21.030;2023-02-01T19:15:17;4.80;99.90
44894;DHT22;30625;52.206;21.030;2023-02-01T19:17:45;3.90;99.90
44894;DHT22;30625;52.206;21.030;2023-02-01T19:20:17;4.00;99.90
44894;DHT22;30625;52.206;21.030;2023-02-01T19:22:44;3.90;99.90
44894;DHT22;30625;52.206;21.030;2023-02-01T19:25:15;3.90;99.90
44894;DHT22;30625;52.206;21.030;2023-02-01T19:27:41;3.90;99.90
44894;DHT22;30625;52.206;21.030;2023-02-01T19:30:10;3.90;99.90
44894;DHT22;30625;52.206;21.030;2023-02-01T19:32:37;3.90;99.90
44894;DHT22;30625;52.206;21.030;2023-02-01T19:35:03;4.10;99.90
44894;DHT22;30625;52.206;21.030;2023-02-01T19:37:29;4.00;99.90
44894;DHT22;30625;52.206;21.030;2023-02-01T19:39:55;3.90;99.90
44894;DHT22;30625;52.206;21.030;2023-02-01T19:42:26;3.90;99.90
44894;DHT22;30625;52.206;21.030;2023-02-01T19:44:52;3.90;99.90
44894;DHT22;30625;52.206;21.030;2023-02-01T19:47:18;3.90;99.90
44894;DHT22;30625;52.206;21.030;2023-02-01T19:49:44;4.40;99.90
44894;DHT22;30625;52.206;21.030;2023-02-01T19:52:10;3.80;99.90
44894;DHT22;30625;52.206;21.030;2023-02-01T19:54:36;4.50;99.90
44894;DHT22;30625;52.206;21.030;2023-02-01T19:57:01;3.80;99.90